sensor_id;sensor_type;location;lat;lon;timestamp;P1;durP1;ratioP1;P2;durP2;ratioP2
21046;SDS011;10682;50.874;3.656;2023-02-11T00:01:15;25.23;;;7.00;;
21046;SDS011;10682;50.874;3.656;2023-02-11T00:03:45;15.97;;;6.30;;
21046;SDS011;10682;50.874;3.656;2023-02-11T00:06:12;22.13;;;7.30;;
21046;SDS011;10682;50.874;3.656;2023-02-11T00:08:39;24.93;;;7.10;;
21046;SDS011;10682;50.874;3.656;2023-02-11T00:11:06;21.20;;;7.23;;
21046;SDS011;10682;50.874;3.656;2023-02-11T00:13:35;20.17;;;6.93;;
21046;SDS011;10682;50.874;3.656;2023-02-11T00:16:06;16.83;;;6.53;;
21046;SDS011;10682;50.874;3.656;2023-02-11T00:18:39;19.13;;;6.47;;
21046;SDS011;10682;50.874;3.656;2023-02-11T00:21:09;24.53;;;6.70;;
21046;SDS011;10682;50.874;3.656;2023-02-11T00:23:44;19.07;;;6.97;;
21046;SDS011;10682;50.874;3.656;2023-02-11T00:26:13;18.03;;;7.03;;
21046;SDS011;10682;50.874;3.656;2023-02-11T00:28:47;26.63;;;7.47;;
21046;SDS011;10682;50.874;3.656;2023-02-11T00:31:16;24.13;;;8.17;;
21046;SDS011;10682;50.874;3.656;2023-02-11T00:33:46;23.60;;;7.20;;
21046;SDS011;10682;50.874;3.656;2023-02-11T00:36:15;23.63;;;7.93;;
21046;SDS011;10682;50.874;3.656;2023-02-11T00:38:45;23.20;;;8.20;;
21046;SDS011;10682;50.874;3.656;2023-02-11T00:41:13;28.03;;;8.93;;
21046;SDS011;10682;50.874;3.656;2023-02-11T00:43:42;26.63;;;9.20;;
21046;SDS011;10682;50.874;3.656;2023-02-11T00:46:09;25.20;;;8.33;;
21046;SDS011;10682;50.874;3.656;2023-02-11T00:48:36;21.03;;;8.50;;
21046;SDS011;10682;50.874;3.656;2023-02-11T00:51:03;28.07;;;8.80;;
21046;SDS011;10682;50.874;3.656;2023-02-11T00:53:31;21.23;;;7.97;;
21046;SDS011;10682;50.874;3.656;2023-02-11T00:55:59;22.07;;;9.27;;
21046;SDS011;10682;50.874;3.656;2023-02-11T00:58:26;20.90;;;8.20;;
21046;SDS011;10682;50.874;3.656;2023-02-11T01:00:55;26.77;;;8.70;;
21046;SDS011;10682;50.874;3.656;2023-02-11T01:03:22;22.60;;;9.30;;
21046;SDS011;10682;50.874;3.656;2023-02-11T01:05:49;24.10;;;9.00;;
21046;SDS011;10682;50.874;3.656;2023-02-11T01:08:17;25.77;;;9.03;;
21046;SDS011;10682;50.874;3.656;2023-02-11T01:10:44;25.03;;;8.30;;
21046;SDS011;10682;50.874;3.656;2023-02-11T01:13:24;30.17;;;8.73;;
21046;SDS011;10682;50.874;3.656;2023-02-11T01:15:52;28.23;;;9.40;;
21046;SDS011;10682;50.874;3.656;2023-02-11T01:18:21;21.87;;;8.13;;
21046;SDS011;10682;50.874;3.656;2023-02-11T01:20:49;23.37;;;8.10;;
21046;SDS011;10682;50.874;3.656;2023-02-11T01:23:17;24.17;;;7.93;;
21046;SDS011;10682;50.874;3.656;2023-02-11T01:25:45;21.77;;;7.60;;
21046;SDS011;10682;50.874;3.656;2023-02-11T01:28:16;31.33;;;8.13;;
21046;SDS011;10682;50.874;3.656;2023-02-11T01:30:47;22.00;;;7.57;;
21046;SDS011;10682;50.874;3.656;2023-02-11T01:33:14;19.70;;;7.90;;
21046;SDS011;10682;50.874;3.656;2023-02-11T01:35:42;30.67;;;8.10;;
21046;SDS011;10682;50.874;3.656;2023-02-11T01:38:19;25.70;;;8.03;;
21046;SDS011;10682;50.874;3.656;2023-02-11T01:40:51;35.93;;;8.63;;
21046;SDS011;10682;50.874;3.656;2023-02-11T01:43:24;20.00;;;8.30;;
21046;SDS011;10682;50.874;3.656;2023-02-11T01:46:00;23.70;;;7.93;;
21046;SDS011;10682;50.874;3.656;2023-02-11T01:48:51;23.97;;;7.90;;
21046;SDS011;10682;50.874;3.656;2023-02-11T01:51:26;21.30;;;8.20;;
21046;SDS011;10682;50.874;3.656;2023-02-11T01:54:19;21.87;;;8.20;;
21046;SDS011;10682;50.874;3.656;2023-02-11T01:57:08;25.73;;;8.20;;
21046;SDS011;10682;50.874;3.656;2023-02-11T02:07:57;21.87;;;7.77;;
21046;SDS011;10682;50.874;3.656;2023-02-11T02:10:33;24.13;;;8.50;;
21046;SDS011;10682;50.874;3.656;2023-02-11T02:13:02;23.70;;;7.87;;
21046;SDS011;10682;50.874;3.656;2023-02-11T02:15:30;20.13;;;7.63;;
21046;SDS011;10682;50.874;3.656;2023-02-11T02:18:07;21.43;;;7.73;;
21046;SDS011;10682;50.874;3.656;2023-02-11T02:21:03;18.10;;;7.70;;
21046;SDS011;10682;50.874;3.656;2023-02-11T02:24:19;21.80;;;7.50;;
21046;SDS011;10682;50.874;3.656;2023-02-11T02:33:19;26.03;;;8.03;;
21046;SDS011;10682;50.874;3.656;2023-02-11T02:38:59;22.13;;;8.03;;
21046;SDS011;10682;50.874;3.656;2023-02-11T02:41:37;24.57;;;8.43;;
21046;SDS011;10682;50.874;3.656;2023-02-11T02:44:06;21.10;;;8.53;;
21046;SDS011;10682;50.874;3.656;2023-02-11T02:46:34;25.30;;;8.03;;
21046;SDS011;10682;50.874;3.656;2023-02-11T02:49:02;29.70;;;8.80;;
21046;SDS011;10682;50.874;3.656;2023-02-11T02:51:45;25.47;;;8.90;;
21046;SDS011;10682;50.874;3.656;2023-02-11T02:57:52;20.57;;;9.03;;
21046;SDS011;10682;50.874;3.656;2023-02-11T03:03:40;21.03;;;8.53;;
21046;SDS011;10682;50.874;3.656;2023-02-11T03:06:37;24.77;;;9.07;;
21046;SDS011;10682;50.874;3.656;2023-02-11T03:09:33;25.73;;;9.30;;
21046;SDS011;10682;50.874;3.656;2023-02-11T03:12:16;27.83;;;11.03;;
21046;SDS011;10682;50.874;3.656;2023-02-11T03:14:45;23.33;;;8.93;;
21046;SDS011;10682;50.874;3.656;2023-02-11T03:17:15;20.63;;;8.93;;
21046;SDS011;10682;50.874;3.656;2023-02-11T03:19:43;22.43;;;8.90;;
21046;SDS011;10682;50.874;3.656;2023-02-11T03:22:16;29.13;;;9.43;;
21046;SDS011;10682;50.874;3.656;2023-02-11T03:24:51;30.27;;;10.10;;
21046;SDS011;10682;50.874;3.656;2023-02-11T03:30:20;28.63;;;9.53;;
21046;SDS011;10682;50.874;3.656;2023-02-11T03:33:00;23.17;;;9.93;;
21046;SDS011;10682;50.874;3.656;2023-02-11T03:35:40;22.73;;;9.10;;
21046;SDS011;10682;50.874;3.656;2023-02-11T03:38:32;35.23;;;10.23;;
21046;SDS011;10682;50.874;3.656;2023-02-11T03:41:04;26.87;;;9.97;;
21046;SDS011;10682;50.874;3.656;2023-02-11T03:43:34;28.13;;;9.87;;
21046;SDS011;10682;50.874;3.656;2023-02-11T03:46:07;21.67;;;9.70;;
21046;SDS011;10682;50.874;3.656;2023-02-11T03:48:37;23.53;;;9.40;;
21046;SDS011;10682;50.874;3.656;2023-02-11T03:51:18;24.60;;;9.43;;
21046;SDS011;10682;50.874;3.656;2023-02-11T03:53:47;26.90;;;9.60;;
21046;SDS011;10682;50.874;3.656;2023-02-11T03:56:19;26.03;;;9.87;;
21046;SDS011;10682;50.874;3.656;2023-02-11T03:58:51;26.10;;;10.17;;
21046;SDS011;10682;50.874;3.656;2023-02-11T04:01:22;33.33;;;10.10;;
21046;SDS011;10682;50.874;3.656;2023-02-11T04:03:49;23.60;;;9.30;;
21046;SDS011;10682;50.874;3.656;2023-02-11T04:06:19;25.57;;;10.23;;
21046;SDS011;10682;50.874;3.656;2023-02-11T04:08:46;24.63;;;9.73;;
21046;SDS011;10682;50.874;3.656;2023-02-11T04:11:13;19.50;;;9.53;;
21046;SDS011;10682;50.874;3.656;2023-02-11T04:13:40;23.23;;;10.07;;
21046;SDS011;10682;50.874;3.656;2023-02-11T04:16:07;25.27;;;10.50;;
21046;SDS011;10682;50.874;3.656;2023-02-11T04:18:47;27.10;;;9.80;;
21046;SDS011;10682;50.874;3.656;2023-02-11T04:21:15;31.33;;;9.67;;
21046;SDS011;10682;50.874;3.656;2023-02-11T04:23:41;29.33;;;10.00;;
21046;SDS011;10682;50.874;3.656;2023-02-11T04:26:09;26.13;;;9.37;;
21046;SDS011;10682;50.874;3.656;2023-02-11T04:28:36;25.23;;;10.07;;
21046;SDS011;10682;50.874;3.656;2023-02-11T04:31:03;23.27;;;9.30;;
21046;SDS011;10682;50.874;3.656;2023-02-11T04:33:30;29.47;;;10.37;;
21046;SDS011;10682;50.874;3.656;2023-02-11T04:35:57;23.33;;;9.63;;
21046;SDS011;10682;50.874;3.656;2023-02-11T04:38:24;21.33;;;10.10;;
21046;SDS011;10682;50.874;3.656;2023-02-11T04:40:51;29.10;;;10.87;;
21046;SDS011;10682;50.874;3.656;2023-02-11T04:43:18;25.90;;;10.07;;
21046;SDS011;10682;50.874;3.656;2023-02-11T04:45:45;24.30;;;9.93;;
21046;SDS011;10682;50.874;3.656;2023-02-11T04:48:13;20.40;;;10.00;;
21046;SDS011;10682;50.874;3.656;2023-02-11T04:50:40;23.40;;;10.30;;
21046;SDS011;10682;50.874;3.656;2023-02-11T04:53:07;24.17;;;10.63;;
21046;SDS011;10682;50.874;3.656;2023-02-11T04:55:34;24.07;;;10.97;;
21046;SDS011;10682;50.874;3.656;2023-02-11T04:58:01;32.70;;;11.63;;
21046;SDS011;10682;50.874;3.656;2023-02-11T05:00:28;28.27;;;11.50;;
21046;SDS011;10682;50.874;3.656;2023-02-11T05:02:55;23.67;;;11.23;;
21046;SDS011;10682;50.874;3.656;2023-02-11T05:05:22;29.30;;;11.63;;
21046;SDS011;10682;50.874;3.656;2023-02-11T05:07:49;29.00;;;12.07;;
21046;SDS011;10682;50.874;3.656;2023-02-11T05:10:16;38.47;;;12.07;;
21046;SDS011;10682;50.874;3.656;2023-02-11T05:12:43;29.47;;;12.27;;
21046;SDS011;10682;50.874;3.656;2023-02-11T05:15:10;30.00;;;12.40;;
21046;SDS011;10682;50.874;3.656;2023-02-11T05:17:37;27.47;;;12.53;;
21046;SDS011;10682;50.874;3.656;2023-02-11T05:20:04;31.97;;;12.63;;
21046;SDS011;10682;50.874;3.656;2023-02-11T05:22:31;29.60;;;13.23;;
21046;SDS011;10682;50.874;3.656;2023-02-11T05:24:58;31.13;;;13.20;;
21046;SDS011;10682;50.874;3.656;2023-02-11T05:27:25;28.40;;;13.53;;
21046;SDS011;10682;50.874;3.656;2023-02-11T05:29:52;36.87;;;13.40;;
21046;SDS011;10682;50.874;3.656;2023-02-11T05:32:19;34.57;;;12.43;;
21046;SDS011;10682;50.874;3.656;2023-02-11T05:34:46;30.33;;;12.67;;
21046;SDS011;10682;50.874;3.656;2023-02-11T05:37:13;30.83;;;12.80;;
21046;SDS011;10682;50.874;3.656;2023-02-11T05:39:40;25.77;;;12.57;;
21046;SDS011;10682;50.874;3.656;2023-02-11T05:42:08;29.93;;;12.30;;
21046;SDS011;10682;50.874;3.656;2023-02-11T05:44:35;29.47;;;13.40;;
21046;SDS011;10682;50.874;3.656;2023-02-11T05:47:02;35.23;;;13.23;;
21046;SDS011;10682;50.874;3.656;2023-02-11T05:49:29;34.03;;;14.07;;
21046;SDS011;10682;50.874;3.656;2023-02-11T05:51:56;34.23;;;15.50;;
21046;SDS011;10682;50.874;3.656;2023-02-11T05:54:23;29.20;;;13.97;;
21046;SDS011;10682;50.874;3.656;2023-02-11T05:56:50;30.87;;;13.63;;
21046;SDS011;10682;50.874;3.656;2023-02-11T05:59:17;28.63;;;13.20;;
21046;SDS011;10682;50.874;3.656;2023-02-11T06:01:44;31.47;;;14.63;;
21046;SDS011;10682;50.874;3.656;2023-02-11T06:04:11;33.63;;;14.90;;
21046;SDS011;10682;50.874;3.656;2023-02-11T06:06:38;40.47;;;14.60;;
21046;SDS011;10682;50.874;3.656;2023-02-11T06:09:05;35.27;;;14.53;;
21046;SDS011;10682;50.874;3.656;2023-02-11T06:11:32;37.17;;;14.97;;
21046;SDS011;10682;50.874;3.656;2023-02-11T06:14:00;41.30;;;15.53;;
21046;SDS011;10682;50.874;3.656;2023-02-11T06:16:27;45.30;;;15.33;;
21046;SDS011;10682;50.874;3.656;2023-02-11T06:18:54;29.60;;;14.33;;
21046;SDS011;10682;50.874;3.656;2023-02-11T06:21:21;30.60;;;14.93;;
21046;SDS011;10682;50.874;3.656;2023-02-11T06:23:55;38.50;;;15.53;;
21046;SDS011;10682;50.874;3.656;2023-02-11T06:26:22;41.10;;;16.40;;
21046;SDS011;10682;50.874;3.656;2023-02-11T06:28:49;35.50;;;16.17;;
21046;SDS011;10682;50.874;3.656;2023-02-11T06:31:17;32.90;;;15.97;;
21046;SDS011;10682;50.874;3.656;2023-02-11T06:33:44;39.77;;;16.67;;
21046;SDS011;10682;50.874;3.656;2023-02-11T06:36:15;38.33;;;17.17;;
21046;SDS011;10682;50.874;3.656;2023-02-11T06:38:45;41.57;;;16.60;;
21046;SDS011;10682;50.874;3.656;2023-02-11T06:41:14;39.87;;;16.73;;
21046;SDS011;10682;50.874;3.656;2023-02-11T06:43:45;40.50;;;17.97;;
21046;SDS011;10682;50.874;3.656;2023-02-11T06:46:13;44.97;;;17.87;;
21046;SDS011;10682;50.874;3.656;2023-02-11T06:48:40;44.73;;;18.33;;
21046;SDS011;10682;50.874;3.656;2023-02-11T06:51:10;39.73;;;19.07;;
21046;SDS011;10682;50.874;3.656;2023-02-11T06:53:45;37.10;;;18.53;;
21046;SDS011;10682;50.874;3.656;2023-02-11T06:56:16;47.97;;;19.10;;
21046;SDS011;10682;50.874;3.656;2023-02-11T06:58:53;47.93;;;19.30;;
21046;SDS011;10682;50.874;3.656;2023-02-11T07:01:20;44.00;;;18.73;;
21046;SDS011;10682;50.874;3.656;2023-02-11T07:03:49;43.47;;;18.13;;
21046;SDS011;10682;50.874;3.656;2023-02-11T07:06:21;43.57;;;18.93;;
21046;SDS011;10682;50.874;3.656;2023-02-11T07:08:53;43.27;;;18.90;;
21046;SDS011;10682;50.874;3.656;2023-02-11T07:11:25;45.07;;;19.07;;
21046;SDS011;10682;50.874;3.656;2023-02-11T07:13:54;43.13;;;18.47;;
21046;SDS011;10682;50.874;3.656;2023-02-11T07:16:26;51.17;;;18.87;;
21046;SDS011;10682;50.874;3.656;2023-02-11T07:18:54;48.43;;;18.37;;
21046;SDS011;10682;50.874;3.656;2023-02-11T07:21:21;48.57;;;18.27;;
21046;SDS011;10682;50.874;3.656;2023-02-11T07:23:49;39.97;;;18.30;;
21046;SDS011;10682;50.874;3.656;2023-02-11T07:26:17;46.60;;;19.90;;
21046;SDS011;10682;50.874;3.656;2023-02-11T07:28:48;38.60;;;18.43;;
21046;SDS011;10682;50.874;3.656;2023-02-11T07:31:21;49.13;;;19.70;;
21046;SDS011;10682;50.874;3.656;2023-02-11T07:33:54;50.63;;;19.73;;
21046;SDS011;10682;50.874;3.656;2023-02-11T07:36:25;49.10;;;19.60;;
21046;SDS011;10682;50.874;3.656;2023-02-11T07:38:54;50.03;;;20.60;;
21046;SDS011;10682;50.874;3.656;2023-02-11T07:41:24;52.07;;;21.60;;
21046;SDS011;10682;50.874;3.656;2023-02-11T07:43:52;49.40;;;20.50;;
21046;SDS011;10682;50.874;3.656;2023-02-11T07:46:21;54.93;;;21.57;;
21046;SDS011;10682;50.874;3.656;2023-02-11T07:48:50;57.80;;;22.00;;
21046;SDS011;10682;50.874;3.656;2023-02-11T07:51:22;52.10;;;22.87;;
21046;SDS011;10682;50.874;3.656;2023-02-11T07:53:52;57.67;;;21.10;;
21046;SDS011;10682;50.874;3.656;2023-02-11T07:56:21;61.77;;;22.43;;
21046;SDS011;10682;50.874;3.656;2023-02-11T07:58:48;61.00;;;23.37;;
21046;SDS011;10682;50.874;3.656;2023-02-11T08:01:21;56.77;;;22.70;;
21046;SDS011;10682;50.874;3.656;2023-02-11T08:03:51;63.93;;;23.07;;
21046;SDS011;10682;50.874;3.656;2023-02-11T08:06:18;61.97;;;24.43;;
21046;SDS011;10682;50.874;3.656;2023-02-11T08:08:48;55.07;;;22.33;;
21046;SDS011;10682;50.874;3.656;2023-02-11T08:11:17;59.13;;;21.83;;
21046;SDS011;10682;50.874;3.656;2023-02-11T08:13:53;60.03;;;22.93;;
21046;SDS011;10682;50.874;3.656;2023-02-11T08:16:23;56.33;;;21.80;;
21046;SDS011;10682;50.874;3.656;2023-02-11T08:18:58;54.00;;;22.13;;
21046;SDS011;10682;50.874;3.656;2023-02-11T08:21:28;56.60;;;22.17;;
21046;SDS011;10682;50.874;3.656;2023-02-11T08:23:56;62.50;;;22.43;;
21046;SDS011;10682;50.874;3.656;2023-02-11T08:26:24;57.40;;;23.57;;
21046;SDS011;10682;50.874;3.656;2023-02-11T08:28:54;57.77;;;22.33;;
21046;SDS011;10682;50.874;3.656;2023-02-11T08:31:24;55.90;;;22.63;;
21046;SDS011;10682;50.874;3.656;2023-02-11T08:33:58;57.17;;;23.77;;
21046;SDS011;10682;50.874;3.656;2023-02-11T08:36:29;56.47;;;24.27;;
21046;SDS011;10682;50.874;3.656;2023-02-11T08:39:06;59.10;;;24.90;;
21046;SDS011;10682;50.874;3.656;2023-02-11T08:41:45;57.13;;;22.90;;
21046;SDS011;10682;50.874;3.656;2023-02-11T08:44:20;57.50;;;23.50;;
21046;SDS011;10682;50.874;3.656;2023-02-11T08:46:48;46.57;;;21.17;;
21046;SDS011;10682;50.874;3.656;2023-02-11T08:49:16;49.40;;;22.63;;
21046;SDS011;10682;50.874;3.656;2023-02-11T08:51:44;49.37;;;22.00;;
21046;SDS011;10682;50.874;3.656;2023-02-11T08:54:12;49.47;;;22.20;;
21046;SDS011;10682;50.874;3.656;2023-02-11T08:56:40;47.53;;;21.27;;
21046;SDS011;10682;50.874;3.656;2023-02-11T08:59:08;48.33;;;21.77;;
21046;SDS011;10682;50.874;3.656;2023-02-11T09:01:42;53.10;;;21.80;;
21046;SDS011;10682;50.874;3.656;2023-02-11T09:04:09;56.30;;;22.37;;
21046;SDS011;10682;50.874;3.656;2023-02-11T09:06:36;49.47;;;21.33;;
21046;SDS011;10682;50.874;3.656;2023-02-11T09:09:04;50.47;;;21.53;;
21046;SDS011;10682;50.874;3.656;2023-02-11T09:11:32;51.07;;;22.57;;
21046;SDS011;10682;50.874;3.656;2023-02-11T09:14:01;55.03;;;22.67;;
21046;SDS011;10682;50.874;3.656;2023-02-11T09:16:30;49.70;;;23.53;;
21046;SDS011;10682;50.874;3.656;2023-02-11T09:19:01;49.17;;;22.97;;
21046;SDS011;10682;50.874;3.656;2023-02-11T09:21:30;46.83;;;22.60;;
21046;SDS011;10682;50.874;3.656;2023-02-11T09:23:57;47.63;;;22.63;;
21046;SDS011;10682;50.874;3.656;2023-02-11T09:26:26;45.83;;;22.13;;
21046;SDS011;10682;50.874;3.656;2023-02-11T09:28:55;47.07;;;22.73;;
21046;SDS011;10682;50.874;3.656;2023-02-11T09:31:24;45.20;;;21.73;;
21046;SDS011;10682;50.874;3.656;2023-02-11T09:33:54;46.63;;;22.37;;
21046;SDS011;10682;50.874;3.656;2023-02-11T09:36:33;43.80;;;22.87;;
21046;SDS011;10682;50.874;3.656;2023-02-11T09:39:04;51.13;;;22.30;;
21046;SDS011;10682;50.874;3.656;2023-02-11T09:44:34;53.77;;;23.43;;
21046;SDS011;10682;50.874;3.656;2023-02-11T09:47:04;46.20;;;22.70;;
21046;SDS011;10682;50.874;3.656;2023-02-11T09:50:01;48.10;;;23.77;;
21046;SDS011;10682;50.874;3.656;2023-02-11T09:55:14;47.30;;;22.63;;
21046;SDS011;10682;50.874;3.656;2023-02-11T09:57:46;49.40;;;24.80;;
21046;SDS011;10682;50.874;3.656;2023-02-11T10:00:18;50.57;;;25.60;;
21046;SDS011;10682;50.874;3.656;2023-02-11T10:08:40;50.43;;;26.33;;
21046;SDS011;10682;50.874;3.656;2023-02-11T10:23:49;49.43;;;26.43;;
21046;SDS011;10682;50.874;3.656;2023-02-11T10:26:21;56.03;;;27.40;;
21046;SDS011;10682;50.874;3.656;2023-02-11T10:28:49;56.10;;;28.03;;
21046;SDS011;10682;50.874;3.656;2023-02-11T10:31:20;50.80;;;26.90;;
21046;SDS011;10682;50.874;3.656;2023-02-11T10:34:04;51.97;;;28.03;;
21046;SDS011;10682;50.874;3.656;2023-02-11T10:36:36;52.60;;;26.17;;
21046;SDS011;10682;50.874;3.656;2023-02-11T10:41:51;51.43;;;25.43;;
21046;SDS011;10682;50.874;3.656;2023-02-11T10:44:31;45.97;;;25.00;;
21046;SDS011;10682;50.874;3.656;2023-02-11T10:47:25;45.87;;;23.23;;
21046;SDS011;10682;50.874;3.656;2023-02-11T10:49:55;44.93;;;24.37;;
21046;SDS011;10682;50.874;3.656;2023-02-11T10:52:28;44.17;;;24.73;;
21046;SDS011;10682;50.874;3.656;2023-02-11T10:55:00;47.37;;;25.17;;
21046;SDS011;10682;50.874;3.656;2023-02-11T10:57:42;49.77;;;25.33;;
21046;SDS011;10682;50.874;3.656;2023-02-11T11:00:37;44.47;;;24.60;;
21046;SDS011;10682;50.874;3.656;2023-02-11T11:03:17;49.70;;;26.30;;
21046;SDS011;10682;50.874;3.656;2023-02-11T11:05:48;50.03;;;26.40;;
21046;SDS011;10682;50.874;3.656;2023-02-11T11:08:18;45.50;;;26.23;;
21046;SDS011;10682;50.874;3.656;2023-02-11T11:10:47;45.37;;;26.03;;
21046;SDS011;10682;50.874;3.656;2023-02-11T11:18:40;42.13;;;23.77;;
21046;SDS011;10682;50.874;3.656;2023-02-11T11:24:01;41.07;;;22.17;;
21046;SDS011;10682;50.874;3.656;2023-02-11T11:26:51;38.63;;;23.23;;
21046;SDS011;10682;50.874;3.656;2023-02-11T11:29:36;41.67;;;22.97;;
21046;SDS011;10682;50.874;3.656;2023-02-11T11:32:15;42.10;;;24.03;;
21046;SDS011;10682;50.874;3.656;2023-02-11T11:34:52;44.13;;;24.87;;
21046;SDS011;10682;50.874;3.656;2023-02-11T11:37:23;44.53;;;23.33;;
21046;SDS011;10682;50.874;3.656;2023-02-11T11:39:58;40.10;;;23.57;;
21046;SDS011;10682;50.874;3.656;2023-02-11T11:42:39;43.83;;;24.63;;
21046;SDS011;10682;50.874;3.656;2023-02-11T11:47:51;43.90;;;24.37;;
21046;SDS011;10682;50.874;3.656;2023-02-11T11:58:48;41.27;;;23.87;;
21046;SDS011;10682;50.874;3.656;2023-02-11T12:07:12;42.03;;;23.30;;
21046;SDS011;10682;50.874;3.656;2023-02-11T12:45:27;50.20;;;27.93;;
21046;SDS011;10682;50.874;3.656;2023-02-11T12:54:43;54.93;;;30.20;;
21046;SDS011;10682;50.874;3.656;2023-02-11T12:57:57;51.77;;;28.60;;
21046;SDS011;10682;50.874;3.656;2023-02-11T13:00:28;46.80;;;26.07;;
21046;SDS011;10682;50.874;3.656;2023-02-11T13:03:21;50.47;;;28.70;;
21046;SDS011;10682;50.874;3.656;2023-02-11T13:06:04;53.77;;;29.43;;
21046;SDS011;10682;50.874;3.656;2023-02-11T13:09:21;54.23;;;27.90;;
21046;SDS011;10682;50.874;3.656;2023-02-11T13:11:56;56.53;;;31.63;;
21046;SDS011;10682;50.874;3.656;2023-02-11T13:14:46;47.33;;;27.50;;
21046;SDS011;10682;50.874;3.656;2023-02-11T13:17:21;42.40;;;25.13;;
21046;SDS011;10682;50.874;3.656;2023-02-11T13:20:01;45.20;;;25.03;;
21046;SDS011;10682;50.874;3.656;2023-02-11T13:23:04;43.77;;;25.07;;
21046;SDS011;10682;50.874;3.656;2023-02-11T13:31:57;37.30;;;21.40;;
21046;SDS011;10682;50.874;3.656;2023-02-11T13:37:23;34.63;;;20.53;;
21046;SDS011;10682;50.874;3.656;2023-02-11T13:42:52;37.10;;;20.10;;
21046;SDS011;10682;50.874;3.656;2023-02-11T13:45:29;36.87;;;20.33;;
21046;SDS011;10682;50.874;3.656;2023-02-11T13:48:03;34.23;;;19.30;;
21046;SDS011;10682;50.874;3.656;2023-02-11T13:50:39;39.47;;;22.80;;
21046;SDS011;10682;50.874;3.656;2023-02-11T13:53:16;43.13;;;21.07;;
21046;SDS011;10682;50.874;3.656;2023-02-11T13:55:45;36.37;;;20.70;;
21046;SDS011;10682;50.874;3.656;2023-02-11T13:58:34;36.37;;;20.47;;
21046;SDS011;10682;50.874;3.656;2023-02-11T14:01:05;37.57;;;20.60;;
21046;SDS011;10682;50.874;3.656;2023-02-11T14:03:35;33.70;;;19.37;;
21046;SDS011;10682;50.874;3.656;2023-02-11T14:06:24;35.93;;;20.23;;
21046;SDS011;10682;50.874;3.656;2023-02-11T14:09:33;36.30;;;19.83;;
21046;SDS011;10682;50.874;3.656;2023-02-11T14:12:21;37.43;;;19.23;;
21046;SDS011;10682;50.874;3.656;2023-02-11T14:17:33;40.90;;;21.27;;
21046;SDS011;10682;50.874;3.656;2023-02-11T14:20:01;37.30;;;21.50;;
21046;SDS011;10682;50.874;3.656;2023-02-11T14:22:42;42.03;;;22.83;;
21046;SDS011;10682;50.874;3.656;2023-02-11T14:25:21;40.27;;;23.47;;
21046;SDS011;10682;50.874;3.656;2023-02-11T14:28:02;41.57;;;22.17;;
21046;SDS011;10682;50.874;3.656;2023-02-11T14:30:45;40.73;;;22.60;;
21046;SDS011;10682;50.874;3.656;2023-02-11T14:33:42;40.50;;;22.43;;
21046;SDS011;10682;50.874;3.656;2023-02-11T14:36:44;41.53;;;22.83;;
21046;SDS011;10682;50.874;3.656;2023-02-11T14:42:21;39.60;;;23.10;;
21046;SDS011;10682;50.874;3.656;2023-02-11T14:44:52;41.10;;;22.00;;
21046;SDS011;10682;50.874;3.656;2023-02-11T14:47:24;39.47;;;21.70;;
21046;SDS011;10682;50.874;3.656;2023-02-11T14:50:25;38.57;;;21.43;;
21046;SDS011;10682;50.874;3.656;2023-02-11T14:53:00;41.07;;;22.43;;
21046;SDS011;10682;50.874;3.656;2023-02-11T14:55:30;36.27;;;21.27;;
21046;SDS011;10682;50.874;3.656;2023-02-11T14:58:07;36.47;;;21.83;;
21046;SDS011;10682;50.874;3.656;2023-02-11T15:01:02;44.30;;;22.27;;
21046;SDS011;10682;50.874;3.656;2023-02-11T15:03:47;41.00;;;22.43;;
21046;SDS011;10682;50.874;3.656;2023-02-11T15:06:19;43.57;;;21.80;;
21046;SDS011;10682;50.874;3.656;2023-02-11T15:08:50;39.87;;;22.17;;
21046;SDS011;10682;50.874;3.656;2023-02-11T15:11:28;41.73;;;23.33;;
21046;SDS011;10682;50.874;3.656;2023-02-11T15:14:10;40.87;;;23.07;;
21046;SDS011;10682;50.874;3.656;2023-02-11T15:17:01;45.67;;;24.27;;
21046;SDS011;10682;50.874;3.656;2023-02-11T15:19:35;42.40;;;24.10;;
21046;SDS011;10682;50.874;3.656;2023-02-11T15:22:07;44.00;;;24.93;;
21046;SDS011;10682;50.874;3.656;2023-02-11T15:27:38;45.83;;;24.87;;
21046;SDS011;10682;50.874;3.656;2023-02-11T15:30:25;39.37;;;22.90;;
21046;SDS011;10682;50.874;3.656;2023-02-11T15:32:59;41.57;;;23.33;;
21046;SDS011;10682;50.874;3.656;2023-02-11T15:35:30;40.70;;;24.07;;
21046;SDS011;10682;50.874;3.656;2023-02-11T15:38:01;41.97;;;23.60;;
21046;SDS011;10682;50.874;3.656;2023-02-11T15:40:31;44.27;;;23.70;;
21046;SDS011;10682;50.874;3.656;2023-02-11T15:43:02;43.17;;;23.93;;
21046;SDS011;10682;50.874;3.656;2023-02-11T15:45:33;37.90;;;23.07;;
21046;SDS011;10682;50.874;3.656;2023-02-11T15:48:36;45.10;;;23.73;;
21046;SDS011;10682;50.874;3.656;2023-02-11T15:51:16;43.97;;;23.93;;
21046;SDS011;10682;50.874;3.656;2023-02-11T15:53:49;40.43;;;23.47;;
21046;SDS011;10682;50.874;3.656;2023-02-11T15:56:23;40.90;;;23.80;;
21046;SDS011;10682;50.874;3.656;2023-02-11T15:58:58;40.87;;;23.60;;
21046;SDS011;10682;50.874;3.656;2023-02-11T16:01:38;40.83;;;23.37;;
21046;SDS011;10682;50.874;3.656;2023-02-11T16:04:05;44.23;;;24.97;;
21046;SDS011;10682;50.874;3.656;2023-02-11T16:06:46;43.27;;;23.57;;
21046;SDS011;10682;50.874;3.656;2023-02-11T16:19:53;41.60;;;22.27;;
21046;SDS011;10682;50.874;3.656;2023-02-11T16:22:25;41.30;;;22.53;;
21046;SDS011;10682;50.874;3.656;2023-02-11T16:24:56;43.87;;;25.73;;
21046;SDS011;10682;50.874;3.656;2023-02-11T16:27:28;42.10;;;26.13;;
21046;SDS011;10682;50.874;3.656;2023-02-11T16:30:20;44.23;;;26.33;;
21046;SDS011;10682;50.874;3.656;2023-02-11T16:32:54;62.93;;;38.23;;
21046;SDS011;10682;50.874;3.656;2023-02-11T16:35:21;48.33;;;28.10;;
21046;SDS011;10682;50.874;3.656;2023-02-11T16:37:48;46.77;;;26.13;;
21046;SDS011;10682;50.874;3.656;2023-02-11T16:40:17;42.43;;;24.43;;
21046;SDS011;10682;50.874;3.656;2023-02-11T16:42:44;48.83;;;26.17;;
21046;SDS011;10682;50.874;3.656;2023-02-11T16:45:11;46.73;;;25.93;;
21046;SDS011;10682;50.874;3.656;2023-02-11T16:47:38;43.77;;;24.30;;
21046;SDS011;10682;50.874;3.656;2023-02-11T16:50:08;44.40;;;25.30;;
21046;SDS011;10682;50.874;3.656;2023-02-11T16:52:47;48.77;;;26.37;;
21046;SDS011;10682;50.874;3.656;2023-02-11T16:55:15;49.03;;;28.37;;
21046;SDS011;10682;50.874;3.656;2023-02-11T16:57:42;48.77;;;27.73;;
21046;SDS011;10682;50.874;3.656;2023-02-11T17:00:09;47.43;;;26.70;;
21046;SDS011;10682;50.874;3.656;2023-02-11T17:02:41;43.87;;;26.67;;
21046;SDS011;10682;50.874;3.656;2023-02-11T17:05:14;49.97;;;28.10;;
21046;SDS011;10682;50.874;3.656;2023-02-11T17:07:45;46.50;;;26.23;;
21046;SDS011;10682;50.874;3.656;2023-02-11T17:10:16;50.07;;;25.83;;
21046;SDS011;10682;50.874;3.656;2023-02-11T17:12:49;44.77;;;25.23;;
21046;SDS011;10682;50.874;3.656;2023-02-11T17:15:16;47.07;;;24.17;;
21046;SDS011;10682;50.874;3.656;2023-02-11T17:17:43;44.30;;;24.30;;
21046;SDS011;10682;50.874;3.656;2023-02-11T17:20:11;43.77;;;24.13;;
21046;SDS011;10682;50.874;3.656;2023-02-11T17:22:39;40.27;;;23.63;;
21046;SDS011;10682;50.874;3.656;2023-02-11T17:25:06;46.83;;;26.77;;
21046;SDS011;10682;50.874;3.656;2023-02-11T17:27:34;42.77;;;23.17;;
21046;SDS011;10682;50.874;3.656;2023-02-11T17:30:01;42.13;;;24.73;;
21046;SDS011;10682;50.874;3.656;2023-02-11T17:32:28;47.10;;;25.70;;